sensor_id;sensor_type;location;lat;lon;timestamp;pressure;altitude;pressure_sealevel;temperature
20092;BMP180;10205;49.678;6.560;2023-06-19T00:01:39;99424.00;;;29.20
20092;BMP180;10205;49.678;6.560;2023-06-19T00:04:06;99428.00;;;29.10
20092;BMP180;10205;49.678;6.560;2023-06-19T00:06:33;99428.00;;;29.10
20092;BMP180;10205;49.678;6.560;2023-06-19T00:09:02;99427.00;;;29.00
20092;BMP180;10205;49.678;6.560;2023-06-19T00:11:32;99433.00;;;29.00
20092;BMP180;10205;49.678;6.560;2023-06-19T00:13:59;99440.00;;;29.00
20092;BMP180;10205;49.678;6.560;2023-06-19T00:16:26;99441.00;;;28.90
20092;BMP180;10205;49.678;6.560;2023-06-19T00:18:54;99447.00;;;28.90
20092;BMP180;10205;49.678;6.560;2023-06-19T00:21:22;99443.00;;;28.80
20092;BMP180;10205;49.678;6.560;2023-06-19T00:23:50;99445.00;;;28.80
20092;BMP180;10205;49.678;6.560;2023-06-19T00:26:20;99459.00;;;28.70
20092;BMP180;10205;49.678;6.560;2023-06-19T00:28:48;99452.00;;;28.70
20092;BMP180;10205;49.678;6.560;2023-06-19T00:31:16;99445.00;;;28.60
20092;BMP180;10205;49.678;6.560;2023-06-19T00:33:43;99449.00;;;28.60
20092;BMP180;10205;49.678;6.560;2023-06-19T00:36:12;99448.00;;;28.50
20092;BMP180;10205;49.678;6.560;2023-06-19T00:38:39;99462.00;;;28.50
20092;BMP180;10205;49.678;6.560;2023-06-19T00:41:07;99465.00;;;28.50
20092;BMP180;10205;49.678;6.560;2023-06-19T00:43:36;99452.00;;;28.50
20092;BMP180;10205;49.678;6.560;2023-06-19T00:46:03;99468.00;;;28.40
20092;BMP180;10205;49.678;6.560;2023-06-19T00:48:32;99452.00;;;28.40
20092;BMP180;10205;49.678;6.560;2023-06-19T00:51:01;99446.00;;;28.30
20092;BMP180;10205;49.678;6.560;2023-06-19T00:53:28;99448.00;;;28.30
20092;BMP180;10205;49.678;6.560;2023-06-19T00:55:57;99446.00;;;28.20
20092;BMP180;10205;49.678;6.560;2023-06-19T00:58:24;99447.00;;;28.20
20092;BMP180;10205;49.678;6.560;2023-06-19T01:00:55;99443.00;;;28.20
20092;BMP180;10205;49.678;6.560;2023-06-19T01:03:24;99443.00;;;28.10
20092;BMP180;10205;49.678;6.560;2023-06-19T01:05:54;99439.00;;;28.00
20092;BMP180;10205;49.678;6.560;2023-06-19T01:08:52;99440.00;;;28.00
20092;BMP180;10205;49.678;6.560;2023-06-19T01:11:30;99446.00;;;27.90
20092;BMP180;10205;49.678;6.560;2023-06-19T01:14:04;99443.00;;;27.90
20092;BMP180;10205;49.678;6.560;2023-06-19T01:16:35;99449.00;;;27.90
20092;BMP180;10205;49.678;6.560;2023-06-19T01:19:04;99452.00;;;27.80
20092;BMP180;10205;49.678;6.560;2023-06-19T01:21:32;99453.00;;;27.80
20092;BMP180;10205;49.678;6.560;2023-06-19T01:24:01;99446.00;;;27.70
20092;BMP180;10205;49.678;6.560;2023-06-19T01:26:29;99449.00;;;27.70
20092;BMP180;10205;49.678;6.560;2023-06-19T01:28:56;99448.00;;;27.70
20092;BMP180;10205;49.678;6.560;2023-06-19T01:31:30;99468.00;;;27.60
20092;BMP180;10205;49.678;6.560;2023-06-19T01:34:00;99463.00;;;27.60
20092;BMP180;10205;49.678;6.560;2023-06-19T01:36:29;99464.00;;;27.50
20092;BMP180;10205;49.678;6.560;2023-06-19T01:38:58;99469.00;;;27.50
20092;BMP180;10205;49.678;6.560;2023-06-19T01:41:30;99480.00;;;27.50
20092;BMP180;10205;49.678;6.560;2023-06-19T01:43:59;99479.00;;;27.40
20092;BMP180;10205;49.678;6.560;2023-06-19T01:46:27;99494.00;;;27.40
20092;BMP180;10205;49.678;6.560;2023-06-19T01:48:54;99499.00;;;27.30
20092;BMP180;10205;49.678;6.560;2023-06-19T01:51:21;99511.00;;;27.30
20092;BMP180;10205;49.678;6.560;2023-06-19T01:53:49;99510.00;;;27.30
20092;BMP180;10205;49.678;6.560;2023-06-19T01:56:16;99519.00;;;27.20
20092;BMP180;10205;49.678;6.560;2023-06-19T01:58:45;99520.00;;;27.20
20092;BMP180;10205;49.678;6.560;2023-06-19T02:01:12;99526.00;;;27.10
20092;BMP180;10205;49.678;6.560;2023-06-19T02:03:39;99533.00;;;27.10
20092;BMP180;10205;49.678;6.560;2023-06-19T02:06:06;99533.00;;;27.10
20092;BMP180;10205;49.678;6.560;2023-06-19T02:08:33;99540.00;;;27.00
20092;BMP180;10205;49.678;6.560;2023-06-19T02:11:01;99533.00;;;27.00
20092;BMP180;10205;49.678;6.560;2023-06-19T02:13:28;99535.00;;;26.90
20092;BMP180;10205;49.678;6.560;2023-06-19T02:15:56;99531.00;;;26.90
20092;BMP180;10205;49.678;6.560;2023-06-19T02:18:23;99533.00;;;26.90
20092;BMP180;10205;49.678;6.560;2023-06-19T02:20:51;99544.00;;;26.80
20092;BMP180;10205;49.678;6.560;2023-06-19T02:23:18;99534.00;;;26.80
20092;BMP180;10205;49.678;6.560;2023-06-19T02:25:45;99538.00;;;26.70
20092;BMP180;10205;49.678;6.560;2023-06-19T02:28:12;99535.00;;;26.70
20092;BMP180;10205;49.678;6.560;2023-06-19T02:30:39;99540.00;;;26.60
20092;BMP180;10205;49.678;6.560;2023-06-19T02:33:09;99547.00;;;26.60
20092;BMP180;10205;49.678;6.560;2023-06-19T02:35:36;99547.00;;;26.60
20092;BMP180;10205;49.678;6.560;2023-06-19T02:38:03;99547.00;;;26.50
20092;BMP180;10205;49.678;6.560;2023-06-19T02:40:31;99554.00;;;26.50
20092;BMP180;10205;49.678;6.560;2023-06-19T02:42:58;99550.00;;;26.40
20092;BMP180;10205;49.678;6.560;2023-06-19T02:45:25;99552.00;;;26.40
20092;BMP180;10205;49.678;6.560;2023-06-19T02:47:53;99555.00;;;26.30
20092;BMP180;10205;49.678;6.560;2023-06-19T02:50:22;99549.00;;;26.30
20092;BMP180;10205;49.678;6.560;2023-06-19T02:52:49;99552.00;;;26.30
20092;BMP180;10205;49.678;6.560;2023-06-19T02:55:16;99568.00;;;26.20
20092;BMP180;10205;49.678;6.560;2023-06-19T02:57:43;99562.00;;;26.20
20092;BMP180;10205;49.678;6.560;2023-06-19T03:00:13;99560.00;;;26.10
20092;BMP180;10205;49.678;6.560;2023-06-19T03:02:40;99562.00;;;26.10
20092;BMP180;10205;49.678;6.560;2023-06-19T03:05:09;99565.00;;;26.10
20092;BMP180;10205;49.678;6.560;2023-06-19T03:07:38;99584.00;;;26.00
20092;BMP180;10205;49.678;6.560;2023-06-19T03:10:06;99577.00;;;26.00
20092;BMP180;10205;49.678;6.560;2023-06-19T03:12:34;99581.00;;;26.00
20092;BMP180;10205;49.678;6.560;2023-06-19T03:15:01;99578.00;;;26.00
20092;BMP180;10205;49.678;6.560;2023-06-19T03:17:28;99580.00;;;25.90
20092;BMP180;10205;49.678;6.560;2023-06-19T03:19:56;99580.00;;;25.90
20092;BMP180;10205;49.678;6.560;2023-06-19T03:22:23;99585.00;;;25.90
20092;BMP180;10205;49.678;6.560;2023-06-19T03:24:52;99593.00;;;25.80
20092;BMP180;10205;49.678;6.560;2023-06-19T03:27:19;99590.00;;;25.80
20092;BMP180;10205;49.678;6.560;2023-06-19T03:29:49;99598.00;;;25.80
20092;BMP180;10205;49.678;6.560;2023-06-19T03:32:16;99593.00;;;25.80
20092;BMP180;10205;49.678;6.560;2023-06-19T03:34:44;99599.00;;;25.70
20092;BMP180;10205;49.678;6.560;2023-06-19T03:37:11;99595.00;;;25.70
20092;BMP180;10205;49.678;6.560;2023-06-19T03:39:40;99593.00;;;25.70
20092;BMP180;10205;49.678;6.560;2023-06-19T03:42:09;99605.00;;;25.60
20092;BMP180;10205;49.678;6.560;2023-06-19T03:44:36;99603.00;;;25.60
20092;BMP180;10205;49.678;6.560;2023-06-19T03:47:04;99606.00;;;25.60
20092;BMP180;10205;49.678;6.560;2023-06-19T03:49:31;99607.00;;;25.60
20092;BMP180;10205;49.678;6.560;2023-06-19T03:51:59;99612.00;;;25.50
20092;BMP180;10205;49.678;6.560;2023-06-19T03:54:26;99603.00;;;25.50
20092;BMP180;10205;49.678;6.560;2023-06-19T03:56:53;99599.00;;;25.50
20092;BMP180;10205;49.678;6.560;2023-06-19T03:59:22;99595.00;;;25.40
20092;BMP180;10205;49.678;6.560;2023-06-19T04:01:49;99587.00;;;25.40
20092;BMP180;10205;49.678;6.560;2023-06-19T04:04:16;99606.00;;;25.40
20092;BMP180;10205;49.678;6.560;2023-06-19T04:06:44;99601.00;;;25.40
20092;BMP180;10205;49.678;6.560;2023-06-19T04:09:12;99600.00;;;25.30
20092;BMP180;10205;49.678;6.560;2023-06-19T04:11:40;99608.00;;;25.30
20092;BMP180;10205;49.678;6.560;2023-06-19T04:14:07;99610.00;;;25.30
20092;BMP180;10205;49.678;6.560;2023-06-19T04:16:35;99608.00;;;25.30
20092;BMP180;10205;49.678;6.560;2023-06-19T04:19:03;99609.00;;;25.20
20092;BMP180;10205;49.678;6.560;2023-06-19T04:21:32;99606.00;;;25.20
20092;BMP180;10205;49.678;6.560;2023-06-19T04:23:59;99610.00;;;25.20
20092;BMP180;10205;49.678;6.560;2023-06-19T04:26:26;99609.00;;;25.20
20092;BMP180;10205;49.678;6.560;2023-06-19T04:28:53;99630.00;;;25.20
20092;BMP180;10205;49.678;6.560;2023-06-19T04:31:22;99625.00;;;25.10
20092;BMP180;10205;49.678;6.560;2023-06-19T04:33:50;99624.00;;;25.10
20092;BMP180;10205;49.678;6.560;2023-06-19T04:36:18;99626.00;;;25.10
20092;BMP180;10205;49.678;6.560;2023-06-19T04:38:45;99636.00;;;25.10
20092;BMP180;10205;49.678;6.560;2023-06-19T04:41:12;99630.00;;;25.10
20092;BMP180;10205;49.678;6.560;2023-06-19T04:43:39;99634.00;;;25.00
20092;BMP180;10205;49.678;6.560;2023-06-19T04:46:07;99635.00;;;25.00
20092;BMP180;10205;49.678;6.560;2023-06-19T04:48:34;99647.00;;;25.00
20092;BMP180;10205;49.678;6.560;2023-06-19T04:51:04;99632.00;;;25.00
20092;BMP180;10205;49.678;6.560;2023-06-19T04:53:31;99636.00;;;25.00
20092;BMP180;10205;49.678;6.560;2023-06-19T04:55:58;99638.00;;;25.00
20092;BMP180;10205;49.678;6.560;2023-06-19T04:58:25;99639.00;;;25.00
20092;BMP180;10205;49.678;6.560;2023-06-19T05:00:53;99642.00;;;25.00
20092;BMP180;10205;49.678;6.560;2023-06-19T05:03:20;99644.00;;;25.00
20092;BMP180;10205;49.678;6.560;2023-06-19T05:05:48;99648.00;;;24.90
20092;BMP180;10205;49.678;6.560;2023-06-19T05:08:16;99640.00;;;24.90
20092;BMP180;10205;49.678;6.560;2023-06-19T05:10:44;99640.00;;;24.90
20092;BMP180;10205;49.678;6.560;2023-06-19T05:13:11;99642.00;;;24.90
20092;BMP180;10205;49.678;6.560;2023-06-19T05:15:38;99650.00;;;24.90
20092;BMP180;10205;49.678;6.560;2023-06-19T05:18:05;99643.00;;;24.90
20092;BMP180;10205;49.678;6.560;2023-06-19T05:20:32;99640.00;;;24.90
20092;BMP180;10205;49.678;6.560;2023-06-19T05:23:00;99635.00;;;24.90
20092;BMP180;10205;49.678;6.560;2023-06-19T05:25:28;99638.00;;;24.90
20092;BMP180;10205;49.678;6.560;2023-06-19T05:27:55;99639.00;;;24.90
20092;BMP180;10205;49.678;6.560;2023-06-19T05:30:23;99640.00;;;24.80
20092;BMP180;10205;49.678;6.560;2023-06-19T05:32:50;99642.00;;;24.80
20092;BMP180;10205;49.678;6.560;2023-06-19T05:35:18;99644.00;;;24.80
20092;BMP180;10205;49.678;6.560;2023-06-19T05:37:45;99647.00;;;24.90
20092;BMP180;10205;49.678;6.560;2023-06-19T05:40:12;99647.00;;;24.80
20092;BMP180;10205;49.678;6.560;2023-06-19T05:42:41;99658.00;;;24.80
20092;BMP180;10205;49.678;6.560;2023-06-19T05:45:14;99664.00;;;24.80
20092;BMP180;10205;49.678;6.560;2023-06-19T05:47:41;99656.00;;;24.80
20092;BMP180;10205;49.678;6.560;2023-06-19T05:50:09;99660.00;;;24.80
20092;BMP180;10205;49.678;6.560;2023-06-19T05:52:36;99655.00;;;24.80
20092;BMP180;10205;49.678;6.560;2023-06-19T05:55:08;99658.00;;;24.80
20092;BMP180;10205;49.678;6.560;2023-06-19T05:57:35;99653.00;;;24.80
20092;BMP180;10205;49.678;6.560;2023-06-19T06:00:06;99657.00;;;24.80
20092;BMP180;10205;49.678;6.560;2023-06-19T06:02:37;99661.00;;;24.80
20092;BMP180;10205;49.678;6.560;2023-06-19T06:05:05;99655.00;;;24.90
20092;BMP180;10205;49.678;6.560;2023-06-19T06:07:34;99666.00;;;24.90
20092;BMP180;10205;49.678;6.560;2023-06-19T06:10:03;99665.00;;;24.90
20092;BMP180;10205;49.678;6.560;2023-06-19T06:12:34;99665.00;;;24.90
20092;BMP180;10205;49.678;6.560;2023-06-19T06:15:01;99673.00;;;24.90
20092;BMP180;10205;49.678;6.560;2023-06-19T06:17:30;99679.00;;;24.90
20092;BMP180;10205;49.678;6.560;2023-06-19T06:19:57;99675.00;;;24.90
20092;BMP180;10205;49.678;6.560;2023-06-19T06:22:25;99680.00;;;24.90
20092;BMP180;10205;49.678;6.560;2023-06-19T06:24:52;99684.00;;;24.90
20092;BMP180;10205;49.678;6.560;2023-06-19T06:27:20;99690.00;;;24.90
20092;BMP180;10205;49.678;6.560;2023-06-19T06:29:47;99684.00;;;24.90
20092;BMP180;10205;49.678;6.560;2023-06-19T06:32:14;99671.00;;;25.00
20092;BMP180;10205;49.678;6.560;2023-06-19T06:34:43;99682.00;;;24.90
20092;BMP180;10205;49.678;6.560;2023-06-19T06:37:10;99686.00;;;25.00
20092;BMP180;10205;49.678;6.560;2023-06-19T06:39:37;99674.00;;;25.00
20092;BMP180;10205;49.678;6.560;2023-06-19T06:42:06;99676.00;;;25.00
20092;BMP180;10205;49.678;6.560;2023-06-19T06:44:33;99681.00;;;25.00
20092;BMP180;10205;49.678;6.560;2023-06-19T06:47:00;99688.00;;;25.00
20092;BMP180;10205;49.678;6.560;2023-06-19T06:49:27;99690.00;;;25.00
20092;BMP180;10205;49.678;6.560;2023-06-19T06:51:56;99691.00;;;25.00
20092;BMP180;10205;49.678;6.560;2023-06-19T06:54:23;99688.00;;;25.00
20092;BMP180;10205;49.678;6.560;2023-06-19T06:56:51;99699.00;;;25.00
20092;BMP180;10205;49.678;6.560;2023-06-19T06:59:22;99698.00;;;25.10
20092;BMP180;10205;49.678;6.560;2023-06-19T07:01:49;99712.00;;;25.10
20092;BMP180;10205;49.678;6.560;2023-06-19T07:04:16;99718.00;;;25.10
20092;BMP180;10205;49.678;6.560;2023-06-19T07:06:43;99716.00;;;25.10
20092;BMP180;10205;49.678;6.560;2023-06-19T07:09:14;99713.00;;;25.10
20092;BMP180;10205;49.678;6.560;2023-06-19T07:11:41;99727.00;;;25.20
20092;BMP180;10205;49.678;6.560;2023-06-19T07:14:08;99726.00;;;25.20
20092;BMP180;10205;49.678;6.560;2023-06-19T07:16:36;99731.00;;;25.20
20092;BMP180;10205;49.678;6.560;2023-06-19T07:19:03;99730.00;;;25.20
20092;BMP180;10205;49.678;6.560;2023-06-19T07:21:31;99726.00;;;25.20
20092;BMP180;10205;49.678;6.560;2023-06-19T07:23:59;99725.00;;;25.30
20092;BMP180;10205;49.678;6.560;2023-06-19T07:26:28;99728.00;;;25.30
20092;BMP180;10205;49.678;6.560;2023-06-19T07:28:55;99723.00;;;25.30
20092;BMP180;10205;49.678;6.560;2023-06-19T07:31:22;99720.00;;;25.30
20092;BMP180;10205;49.678;6.560;2023-06-19T07:33:50;99723.00;;;25.40
20092;BMP180;10205;49.678;6.560;2023-06-19T07:36:17;99733.00;;;25.40
20092;BMP180;10205;49.678;6.560;2023-06-19T07:38:45;99733.00;;;25.40
20092;BMP180;10205;49.678;6.560;2023-06-19T07:41:12;99732.00;;;25.50
20092;BMP180;10205;49.678;6.560;2023-06-19T07:43:41;99740.00;;;25.50
20092;BMP180;10205;49.678;6.560;2023-06-19T07:46:09;99736.00;;;25.50
20092;BMP180;10205;49.678;6.560;2023-06-19T07:48:37;99736.00;;;25.60
20092;BMP180;10205;49.678;6.560;2023-06-19T07:51:04;99736.00;;;25.60
20092;BMP180;10205;49.678;6.560;2023-06-19T07:53:31;99737.00;;;25.60
20092;BMP180;10205;49.678;6.560;2023-06-19T07:55:59;99735.00;;;25.70
20092;BMP180;10205;49.678;6.560;2023-06-19T07:58:26;99732.00;;;25.70
20092;BMP180;10205;49.678;6.560;2023-06-19T08:00:55;99733.00;;;25.80
20092;BMP180;10205;49.678;6.560;2023-06-19T08:03:22;99735.00;;;25.80
20092;BMP180;10205;49.678;6.560;2023-06-19T08:05:50;99730.00;;;25.90
20092;BMP180;10205;49.678;6.560;2023-06-19T08:08:17;99722.00;;;25.90
20092;BMP180;10205;49.678;6.560;2023-06-19T08:10:45;99728.00;;;26.00
20092;BMP180;10205;49.678;6.560;2023-06-19T08:13:12;99726.00;;;26.00
20092;BMP180;10205;49.678;6.560;2023-06-19T08:15:39;99738.00;;;26.00
20092;BMP180;10205;49.678;6.560;2023-06-19T08:18:08;99730.00;;;26.10
20092;BMP180;10205;49.678;6.560;2023-06-19T08:20:35;99736.00;;;26.10
20092;BMP180;10205;49.678;6.560;2023-06-19T08:23:03;99733.00;;;26.20
20092;BMP180;10205;49.678;6.560;2023-06-19T08:25:30;99733.00;;;26.20
20092;BMP180;10205;49.678;6.560;2023-06-19T08:27:58;99729.00;;;26.30
20092;BMP180;10205;49.678;6.560;2023-06-19T08:30:25;99736.00;;;26.30
20092;BMP180;10205;49.678;6.560;2023-06-19T08:32:52;99731.00;;;26.40
20092;BMP180;10205;49.678;6.560;2023-06-19T08:35:21;99725.00;;;26.40
20092;BMP180;10205;49.678;6.560;2023-06-19T08:37:48;99729.00;;;26.50
20092;BMP180;10205;49.678;6.560;2023-06-19T08:40:15;99727.00;;;26.60
20092;BMP180;10205;49.678;6.560;2023-06-19T08:42:43;99725.00;;;26.60
20092;BMP180;10205;49.678;6.560;2023-06-19T08:45:11;99728.00;;;26.60
20092;BMP180;10205;49.678;6.560;2023-06-19T08:47:38;99721.00;;;26.70
20092;BMP180;10205;49.678;6.560;2023-06-19T08:50:07;99716.00;;;26.70
20092;BMP180;10205;49.678;6.560;2023-06-19T08:52:36;99728.00;;;26.80
20092;BMP180;10205;49.678;6.560;2023-06-19T08:55:04;99732.00;;;26.80
20092;BMP180;10205;49.678;6.560;2023-06-19T08:57:35;99725.00;;;26.90
20092;BMP180;10205;49.678;6.560;2023-06-19T09:00:05;99728.00;;;26.90
20092;BMP180;10205;49.678;6.560;2023-06-19T09:02:40;99724.00;;;27.00
20092;BMP180;10205;49.678;6.560;2023-06-19T09:05:15;99724.00;;;27.00
20092;BMP180;10205;49.678;6.560;2023-06-19T09:07:55;99724.00;;;27.10
20092;BMP180;10205;49.678;6.560;2023-06-19T09:10:24;99720.00;;;27.10
20092;BMP180;10205;49.678;6.560;2023-06-19T09:13:00;99727.00;;;27.10
20092;BMP180;10205;49.678;6.560;2023-06-19T09:15:30;99728.00;;;27.20
20092;BMP180;10205;49.678;6.560;2023-06-19T09:18:05;99731.00;;;27.30
20092;BMP180;10205;49.678;6.560;2023-06-19T09:20:34;99727.00;;;27.30
20092;BMP180;10205;49.678;6.560;2023-06-19T09:23:03;99733.00;;;27.40
20092;BMP180;10205;49.678;6.560;2023-06-19T09:25:30;99727.00;;;27.40
20092;BMP180;10205;49.678;6.560;2023-06-19T09:27:58;99722.00;;;27.50
20092;BMP180;10205;49.678;6.560;2023-06-19T09:30:25;99728.00;;;27.50
20092;BMP180;10205;49.678;6.560;2023-06-19T09:32:52;99723.00;;;27.60
20092;BMP180;10205;49.678;6.560;2023-06-19T09:35:20;99719.00;;;27.60
20092;BMP180;10205;49.678;6.560;2023-06-19T09:37:49;99729.00;;;27.70
20092;BMP180;10205;49.678;6.560;2023-06-19T09:40:19;99727.00;;;27.80
20092;BMP180;10205;49.678;6.560;2023-06-19T09:42:48;99723.00;;;27.80
20092;BMP180;10205;49.678;6.560;2023-06-19T09:45:22;99723.00;;;27.90
20092;BMP180;10205;49.678;6.560;2023-06-19T09:47:52;99728.00;;;28.00
20092;BMP180;10205;49.678;6.560;2023-06-19T09:50:23;99727.00;;;28.00
20092;BMP180;10205;49.678;6.560;2023-06-19T09:52:55;99731.00;;;28.10
20092;BMP180;10205;49.678;6.560;2023-06-19T09:55:25;99719.00;;;28.20
20092;BMP180;10205;49.678;6.560;2023-06-19T09:57:55;99717.00;;;28.20
20092;BMP180;10205;49.678;6.560;2023-06-19T10:00:23;99719.00;;;28.30
20092;BMP180;10205;49.678;6.560;2023-06-19T10:02:57;99709.00;;;28.30
20092;BMP180;10205;49.678;6.560;2023-06-19T10:05:29;99706.00;;;28.40
20092;BMP180;10205;49.678;6.560;2023-06-19T10:07:57;99705.00;;;28.50
20092;BMP180;10205;49.678;6.560;2023-06-19T10:10:28;99703.00;;;28.50
20092;BMP180;10205;49.678;6.560;2023-06-19T10:12:58;99705.00;;;28.60
20092;BMP180;10205;49.678;6.560;2023-06-19T10:15:28;99695.00;;;28.70
20092;BMP180;10205;49.678;6.560;2023-06-19T10:18:01;99697.00;;;28.70
20092;BMP180;10205;49.678;6.560;2023-06-19T10:20:32;99698.00;;;28.80
20092;BMP180;10205;49.678;6.560;2023-06-19T10:23:04;99699.00;;;28.80
20092;BMP180;10205;49.678;6.560;2023-06-19T10:25:37;99700.00;;;28.90
20092;BMP180;10205;49.678;6.560;2023-06-19T10:28:16;99700.00;;;29.00
20092;BMP180;10205;49.678;6.560;2023-06-19T10:30:43;99705.00;;;29.00
20092;BMP180;10205;49.678;6.560;2023-06-19T10:33:11;99684.00;;;29.10
20092;BMP180;10205;49.678;6.560;2023-06-19T10:35:39;99690.00;;;29.20
20092;BMP180;10205;49.678;6.560;2023-06-19T10:38:07;99678.00;;;29.20
20092;BMP180;10205;49.678;6.560;2023-06-19T10:40:38;99691.00;;;29.30
20092;BMP180;10205;49.678;6.560;2023-06-19T10:43:05;99688.00;;;29.40
20092;BMP180;10205;49.678;6.560;2023-06-19T10:45:33;99685.00;;;29.40
20092;BMP180;10205;49.678;6.560;2023-06-19T10:48:02;99692.00;;;29.50
20092;BMP180;10205;49.678;6.560;2023-06-19T10:50:34;99690.00;;;29.60
20092;BMP180;10205;49.678;6.560;2023-06-19T10:53:02;99688.00;;;29.70
20092;BMP180;10205;49.678;6.560;2023-06-19T10:55:30;99683.00;;;29.80
20092;BMP180;10205;49.678;6.560;2023-06-19T10:57:59;99691.00;;;29.80
20092;BMP180;10205;49.678;6.560;2023-06-19T11:00:29;99684.00;;;29.90
20092;BMP180;10205;49.678;6.560;2023-06-19T11:02:57;99686.00;;;30.00
20092;BMP180;10205;49.678;6.560;2023-06-19T11:05:27;99696.00;;;30.10
20092;BMP180;10205;49.678;6.560;2023-06-19T11:07:57;99684.00;;;30.20
20092;BMP180;10205;49.678;6.560;2023-06-19T11:10:27;99683.00;;;30.20
20092;BMP180;10205;49.678;6.560;2023-06-19T11:12:56;99686.00;;;30.30
20092;BMP180;10205;49.678;6.560;2023-06-19T11:15:32;99684.00;;;30.40
20092;BMP180;10205;49.678;6.560;2023-06-19T11:18:02;99674.00;;;30.50
20092;BMP180;10205;49.678;6.560;2023-06-19T11:20:29;99676.00;;;30.60
20092;BMP180;10205;49.678;6.560;2023-06-19T11:22:59;99679.00;;;30.70
20092;BMP180;10205;49.678;6.560;2023-06-19T11:25:36;99676.00;;;30.80
20092;BMP180;10205;49.678;6.560;2023-06-19T11:28:03;99675.00;;;30.80
20092;BMP180;10205;49.678;6.560;2023-06-19T11:30:34;99672.00;;;30.90
20092;BMP180;10205;49.678;6.560;2023-06-19T11:33:01;99673.00;;;31.00
20092;BMP180;10205;49.678;6.560;2023-06-19T11:35:33;99678.00;;;31.10
20092;BMP180;10205;49.678;6.560;2023-06-19T11:38:05;99689.00;;;31.20
20092;BMP180;10205;49.678;6.560;2023-06-19T11:40:40;99679.00;;;31.20
20092;BMP180;10205;49.678;6.560;2023-06-19T11:43:07;99680.00;;;31.30
20092;BMP180;10205;49.678;6.560;2023-06-19T11:45:48;99682.00;;;31.40
20092;BMP180;10205;49.678;6.560;2023-06-19T11:48:22;99681.00;;;31.50
20092;BMP180;10205;49.678;6.560;2023-06-19T11:50:50;99675.00;;;31.50
20092;BMP180;10205;49.678;6.560;2023-06-19T11:53:19;99680.00;;;31.60
20092;BMP180;10205;49.678;6.560;2023-06-19T11:55:47;99687.00;;;31.70
20092;BMP180;10205;49.678;6.560;2023-06-19T11:58:15;99671.00;;;31.70
20092;BMP180;10205;49.678;6.560;2023-06-19T12:00:42;99674.00;;;31.80
20092;BMP180;10205;49.678;6.560;2023-06-19T12:03:11;99672.00;;;31.90
20092;BMP180;10205;49.678;6.560;2023-06-19T12:05:39;99670.00;;;31.90
20092;BMP180;10205;49.678;6.560;2023-06-19T12:08:06;99661.00;;;32.00
20092;BMP180;10205;49.678;6.560;2023-06-19T12:10:34;99658.00;;;32.10
20092;BMP180;10205;49.678;6.560;2023-06-19T12:13:02;99666.00;;;32.10
20092;BMP180;10205;49.678;6.560;2023-06-19T12:15:29;99655.00;;;32.20
20092;BMP180;10205;49.678;6.560;2023-06-19T12:17:57;99652.00;;;32.30
20092;BMP180;10205;49.678;6.560;2023-06-19T12:20:26;99647.00;;;32.30
20092;BMP180;10205;49.678;6.560;2023-06-19T12:22:53;99648.00;;;32.30
20092;BMP180;10205;49.678;6.560;2023-06-19T12:25:21;99651.00;;;32.40
20092;BMP180;10205;49.678;6.560;2023-06-19T12:27:48;99657.00;;;32.40
20092;BMP180;10205;49.678;6.560;2023-06-19T12:30:17;99649.00;;;32.50
20092;BMP180;10205;49.678;6.560;2023-06-19T12:32:45;99654.00;;;32.50
20092;BMP180;10205;49.678;6.560;2023-06-19T12:35:14;99654.00;;;32.50
20092;BMP180;10205;49.678;6.560;2023-06-19T12:37:43;99659.00;;;32.60
20092;BMP180;10205;49.678;6.560;2023-06-19T12:40:11;99666.00;;;32.60
20092;BMP180;10205;49.678;6.560;2023-06-19T12:42:39;99656.00;;;32.60
20092;BMP180;10205;49.678;6.560;2023-06-19T12:45:08;99664.00;;;32.70
20092;BMP180;10205;49.678;6.560;2023-06-19T12:47:35;99661.00;;;32.70
20092;BMP180;10205;49.678;6.560;2023-06-19T12:50:03;99660.00;;;32.70
20092;BMP180;10205;49.678;6.560;2023-06-19T12:52:31;99647.00;;;32.70
20092;BMP180;10205;49.678;6.560;2023-06-19T12:55:00;99654.00;;;32.80
20092;BMP180;10205;49.678;6.560;2023-06-19T12:57:27;99651.00;;;32.80
20092;BMP180;10205;49.678;6.560;2023-06-19T12:59:55;99651.00;;;32.80
20092;BMP180;10205;49.678;6.560;2023-06-19T13:02:22;99648.00;;;32.80
20092;BMP180;10205;49.678;6.560;2023-06-19T13:04:50;99650.00;;;32.80
20092;BMP180;10205;49.678;6.560;2023-06-19T13:07:17;99648.00;;;32.90
20092;BMP180;10205;49.678;6.560;2023-06-19T13:09:44;99649.00;;;32.90
20092;BMP180;10205;49.678;6.560;2023-06-19T13:12:13;99652.00;;;32.90
20092;BMP180;10205;49.678;6.560;2023-06-19T13:14:41;99649.00;;;32.90
20092;BMP180;10205;49.678;6.560;2023-06-19T13:17:08;99650.00;;;33.00
20092;BMP180;10205;49.678;6.560;2023-06-19T13:19:36;99648.00;;;33.00
20092;BMP180;10205;49.678;6.560;2023-06-19T13:22:04;99645.00;;;33.00
20092;BMP180;10205;49.678;6.560;2023-06-19T13:24:31;99638.00;;;33.00
20092;BMP180;10205;49.678;6.560;2023-06-19T13:26:59;99637.00;;;33.00
20092;BMP180;10205;49.678;6.560;2023-06-19T13:29:28;99633.00;;;33.10
20092;BMP180;10205;49.678;6.560;2023-06-19T13:31:55;99636.00;;;33.10
20092;BMP180;10205;49.678;6.560;2023-06-19T13:34:23;99644.00;;;33.10
20092;BMP180;10205;49.678;6.560;2023-06-19T13:36:50;99639.00;;;33.10
20092;BMP180;10205;49.678;6.560;2023-06-19T13:39:18;99639.00;;;33.20
20092;BMP180;10205;49.678;6.560;2023-06-19T13:41:46;99636.00;;;33.20
20092;BMP180;10205;49.678;6.560;2023-06-19T13:44:14;99642.00;;;33.20
20092;BMP180;10205;49.678;6.560;2023-06-19T13:46:42;99637.00;;;33.20
20092;BMP180;10205;49.678;6.560;2023-06-19T13:49:10;99639.00;;;33.20
20092;BMP180;10205;49.678;6.560;2023-06-19T13:51:39;99639.00;;;33.20
20092;BMP180;10205;49.678;6.560;2023-06-19T13:54:07;99636.00;;;33.30
20092;BMP180;10205;49.678;6.560;2023-06-19T13:56:35;99642.00;;;33.30
20092;BMP180;10205;49.678;6.560;2023-06-19T13:59:03;99634.00;;;33.30
20092;BMP180;10205;49.678;6.560;2023-06-19T14:01:30;99637.00;;;33.30
20092;BMP180;10205;49.678;6.560;2023-06-19T14:03:59;99630.00;;;33.30
20092;BMP180;10205;49.678;6.560;2023-06-19T14:06:26;99634.00;;;33.40
20092;BMP180;10205;49.678;6.560;2023-06-19T14:08:54;99621.00;;;33.40
20092;BMP180;10205;49.678;6.560;2023-06-19T14:11:22;99626.00;;;33.40
20092;BMP180;10205;49.678;6.560;2023-06-19T14:13:49;99620.00;;;33.40
20092;BMP180;10205;49.678;6.560;2023-06-19T14:16:16;99618.00;;;33.40